Terminal Aerodrome Forecast
Issued by NWS Sioux Falls, SD

Home | Current Version | Previous Version | Text Only | Print | Product List | Glossary On
Versions: 1 2 3 4 5 6 7 8 9 10 11 12 13 14 15 16
000
FTUS43 KFSD 211127
TAFHON
TAF
KHON 211127Z 2112/2212 33009KT P6SM SCT050 OVC080
     FM211500 34014G20KT P6SM OVC080
     FM211800 34022G30KT P6SM SCT060
     FM220100 35010KT P6SM SKC
     FM220700 31005KT P6SM SKC=

USA.gov is the U.S. government's official web portal to all federal, state and local government web resources and services.